sensor_id;sensor_type;location;lat;lon;timestamp;pressure;altitude;pressure_sealevel;temperature;humidity
16331;BME280;8275;48.206;16.340;2022-07-29T00:01:41;99077.50;;;27.37;31.38
16331;BME280;8275;48.206;16.340;2022-07-29T00:04:10;99087.06;;;27.36;31.44
16331;BME280;8275;48.206;16.340;2022-07-29T00:06:40;99086.63;;;27.34;31.24
16331;BME280;8275;48.206;16.340;2022-07-29T00:09:10;99090.19;;;27.31;31.59
16331;BME280;8275;48.206;16.340;2022-07-29T00:11:38;99079.31;;;27.29;31.33
16331;BME280;8275;48.206;16.340;2022-07-29T00:14:07;99082.50;;;27.28;31.83
16331;BME280;8275;48.206;16.340;2022-07-29T00:16:36;99079.25;;;27.26;31.71
16331;BME280;8275;48.206;16.340;2022-07-29T00:19:04;99083.25;;;27.25;31.53
16331;BME280;8275;48.206;16.340;2022-07-29T00:21:34;99078.34;;;27.22;31.75
16331;BME280;8275;48.206;16.340;2022-07-29T00:24:02;99077.91;;;27.20;31.81
16331;BME280;8275;48.206;16.340;2022-07-29T00:26:32;99078.28;;;27.18;31.53
16331;BME280;8275;48.206;16.340;2022-07-29T00:29:02;99078.19;;;27.14;31.84
16331;BME280;8275;48.206;16.340;2022-07-29T00:31:51;99076.16;;;27.11;31.93
16331;BME280;8275;48.206;16.340;2022-07-29T00:34:19;99076.88;;;27.08;31.71
16331;BME280;8275;48.206;16.340;2022-07-29T00:37:05;99072.38;;;27.04;31.70
16331;BME280;8275;48.206;16.340;2022-07-29T00:39:34;99070.28;;;27.01;31.96
16331;BME280;8275;48.206;16.340;2022-07-29T00:42:05;99067.84;;;26.99;32.09
16331;BME280;8275;48.206;16.340;2022-07-29T00:44:37;99067.78;;;26.96;32.32
16331;BME280;8275;48.206;16.340;2022-07-29T00:47:06;99064.97;;;26.96;32.66
16331;BME280;8275;48.206;16.340;2022-07-29T00:49:36;99072.16;;;26.93;32.44
16331;BME280;8275;48.206;16.340;2022-07-29T00:52:07;99066.44;;;26.90;32.60
16331;BME280;8275;48.206;16.340;2022-07-29T00:54:38;99066.38;;;26.86;32.39
16331;BME280;8275;48.206;16.340;2022-07-29T00:57:12;99067.56;;;26.85;32.62
16331;BME280;8275;48.206;16.340;2022-07-29T00:59:41;99059.06;;;26.82;32.36
16331;BME280;8275;48.206;16.340;2022-07-29T01:02:09;99064.22;;;26.80;32.64
16331;BME280;8275;48.206;16.340;2022-07-29T01:04:38;99060.94;;;26.78;32.95
16331;BME280;8275;48.206;16.340;2022-07-29T01:07:07;99060.88;;;26.74;33.16
16331;BME280;8275;48.206;16.340;2022-07-29T01:09:37;99058.44;;;26.73;32.98
16331;BME280;8275;48.206;16.340;2022-07-29T01:12:17;99060.31;;;26.69;32.73
16331;BME280;8275;48.206;16.340;2022-07-29T01:14:48;99053.09;;;26.68;32.87
16331;BME280;8275;48.206;16.340;2022-07-29T01:17:23;99053.81;;;26.65;33.23
16331;BME280;8275;48.206;16.340;2022-07-29T01:20:00;99057.00;;;26.63;32.96
16331;BME280;8275;48.206;16.340;2022-07-29T01:22:53;99050.50;;;26.59;33.10
16331;BME280;8275;48.206;16.340;2022-07-29T01:25:48;99044.78;;;26.56;33.32
16331;BME280;8275;48.206;16.340;2022-07-29T01:28:56;99051.50;;;26.51;33.42
16331;BME280;8275;48.206;16.340;2022-07-29T01:31:38;99054.31;;;26.51;33.26
16331;BME280;8275;48.206;16.340;2022-07-29T01:34:31;99048.63;;;26.48;33.07
16331;BME280;8275;48.206;16.340;2022-07-29T01:37:11;99055.78;;;26.45;33.28
16331;BME280;8275;48.206;16.340;2022-07-29T01:39:44;99050.50;;;26.43;33.52
16331;BME280;8275;48.206;16.340;2022-07-29T01:42:21;99065.31;;;26.40;33.78
16331;BME280;8275;48.206;16.340;2022-07-29T01:44:59;99058.78;;;26.36;33.77
16331;BME280;8275;48.206;16.340;2022-07-29T01:47:37;99058.34;;;26.34;33.82
16331;BME280;8275;48.206;16.340;2022-07-29T01:50:11;99067.97;;;26.33;33.95
16331;BME280;8275;48.206;16.340;2022-07-29T01:52:46;99060.25;;;26.30;33.81
16331;BME280;8275;48.206;16.340;2022-07-29T01:55:18;99065.03;;;26.30;34.24
16331;BME280;8275;48.206;16.340;2022-07-29T01:57:49;99068.22;;;26.28;34.27
16331;BME280;8275;48.206;16.340;2022-07-29T02:00:20;99059.69;;;26.25;34.41
16331;BME280;8275;48.206;16.340;2022-07-29T02:02:51;99059.25;;;26.23;34.51
16331;BME280;8275;48.206;16.340;2022-07-29T02:05:22;99060.44;;;26.22;34.33
16331;BME280;8275;48.206;16.340;2022-07-29T02:07:52;99061.19;;;26.19;34.51
16331;BME280;8275;48.206;16.340;2022-07-29T02:10:26;99065.53;;;26.16;34.36
16331;BME280;8275;48.206;16.340;2022-07-29T02:12:57;99061.00;;;26.12;34.56
16331;BME280;8275;48.206;16.340;2022-07-29T02:15:32;99068.13;;;26.09;34.84
16331;BME280;8275;48.206;16.340;2022-07-29T02:18:04;99065.69;;;26.08;34.85
16331;BME280;8275;48.206;16.340;2022-07-29T02:20:36;99060.41;;;26.06;34.50
16331;BME280;8275;48.206;16.340;2022-07-29T02:23:07;99059.97;;;26.04;34.92
16331;BME280;8275;48.206;16.340;2022-07-29T02:25:39;99060.72;;;26.01;34.72
16331;BME280;8275;48.206;16.340;2022-07-29T02:28:09;99067.50;;;26.00;34.81
16331;BME280;8275;48.206;16.340;2022-07-29T02:30:41;99068.22;;;25.97;35.05
16331;BME280;8275;48.206;16.340;2022-07-29T02:33:14;99066.97;;;25.95;35.38
16331;BME280;8275;48.206;16.340;2022-07-29T02:35:45;99069.31;;;25.93;35.47
16331;BME280;8275;48.206;16.340;2022-07-29T02:38:16;99063.25;;;25.91;35.36
16331;BME280;8275;48.206;16.340;2022-07-29T02:41:08;99069.94;;;25.86;35.33
16331;BME280;8275;48.206;16.340;2022-07-29T02:43:39;99068.31;;;25.85;35.23
16331;BME280;8275;48.206;16.340;2022-07-29T02:46:16;99069.88;;;25.83;35.40
16331;BME280;8275;48.206;16.340;2022-07-29T02:49:02;99059.72;;;25.78;35.57
16331;BME280;8275;48.206;16.340;2022-07-29T02:51:40;99059.72;;;25.78;35.63
16331;BME280;8275;48.206;16.340;2022-07-29T02:54:19;99056.09;;;25.77;35.54
16331;BME280;8275;48.206;16.340;2022-07-29T02:56:48;99049.66;;;25.77;35.89
16331;BME280;8275;48.206;16.340;2022-07-29T02:59:24;99044.75;;;25.74;35.64
16331;BME280;8275;48.206;16.340;2022-07-29T03:01:58;99055.53;;;25.72;35.78
16331;BME280;8275;48.206;16.340;2022-07-29T03:04:29;99055.19;;;25.73;35.79
16331;BME280;8275;48.206;16.340;2022-07-29T03:06:59;99058.72;;;25.70;35.78
16331;BME280;8275;48.206;16.340;2022-07-29T03:09:30;99055.09;;;25.70;35.89
16331;BME280;8275;48.206;16.340;2022-07-29T03:12:00;99057.44;;;25.68;35.93
16331;BME280;8275;48.206;16.340;2022-07-29T03:14:30;99050.22;;;25.67;36.09
16331;BME280;8275;48.206;16.340;2022-07-29T03:17:00;99054.19;;;25.66;36.13
16331;BME280;8275;48.206;16.340;2022-07-29T03:19:31;99054.56;;;25.64;36.04
16331;BME280;8275;48.206;16.340;2022-07-29T03:22:01;99051.75;;;25.64;36.25
16331;BME280;8275;48.206;16.340;2022-07-29T03:24:32;99056.91;;;25.62;36.25
16331;BME280;8275;48.206;16.340;2022-07-29T03:27:00;99051.31;;;25.62;36.33
16331;BME280;8275;48.206;16.340;2022-07-29T03:29:29;99056.09;;;25.62;36.53
16331;BME280;8275;48.206;16.340;2022-07-29T03:32:03;99048.03;;;25.60;36.53
16331;BME280;8275;48.206;16.340;2022-07-29T03:34:35;99045.13;;;25.57;36.35
16331;BME280;8275;48.206;16.340;2022-07-29T03:37:04;99049.09;;;25.56;36.29
16331;BME280;8275;48.206;16.340;2022-07-29T03:39:38;99049.84;;;25.53;36.71
16331;BME280;8275;48.206;16.340;2022-07-29T03:42:12;99057.44;;;25.52;36.73
16331;BME280;8275;48.206;16.340;2022-07-29T03:44:45;99051.38;;;25.50;36.59
16331;BME280;8275;48.206;16.340;2022-07-29T03:47:22;99046.94;;;25.49;36.96
16331;BME280;8275;48.206;16.340;2022-07-29T03:50:14;99049.72;;;25.49;36.79
16331;BME280;8275;48.206;16.340;2022-07-29T03:52:43;99048.56;;;25.50;36.82
16331;BME280;8275;48.206;16.340;2022-07-29T03:55:12;99056.16;;;25.50;37.07
16331;BME280;8275;48.206;16.340;2022-07-29T03:57:42;99057.00;;;25.50;36.78
16331;BME280;8275;48.206;16.340;2022-07-29T04:00:12;99051.00;;;25.52;36.87
16331;BME280;8275;48.206;16.340;2022-07-29T04:02:44;99059.41;;;25.52;36.88
16331;BME280;8275;48.206;16.340;2022-07-29T04:05:16;99067.47;;;25.53;36.78
16331;BME280;8275;48.206;16.340;2022-07-29T04:07:46;99063.50;;;25.54;36.94
16331;BME280;8275;48.206;16.340;2022-07-29T04:10:16;99065.94;;;25.56;37.01
16331;BME280;8275;48.206;16.340;2022-07-29T04:12:58;99060.31;;;25.56;37.02
16331;BME280;8275;48.206;16.340;2022-07-29T04:15:27;99066.03;;;25.59;36.95
16331;BME280;8275;48.206;16.340;2022-07-29T04:17:59;99066.03;;;25.59;37.28
16331;BME280;8275;48.206;16.340;2022-07-29T04:20:27;99064.97;;;25.64;37.03
16331;BME280;8275;48.206;16.340;2022-07-29T04:22:56;99069.03;;;25.66;37.03
16331;BME280;8275;48.206;16.340;2022-07-29T04:25:24;99069.94;;;25.70;37.07
16331;BME280;8275;48.206;16.340;2022-07-29T04:27:53;99064.41;;;25.74;37.22
16331;BME280;8275;48.206;16.340;2022-07-29T04:30:31;99066.94;;;25.79;37.01
16331;BME280;8275;48.206;16.340;2022-07-29T04:33:03;99067.06;;;25.83;37.02
16331;BME280;8275;48.206;16.340;2022-07-29T04:35:35;99076.81;;;25.89;37.19
16331;BME280;8275;48.206;16.340;2022-07-29T04:38:18;99068.13;;;25.94;36.94
16331;BME280;8275;48.206;16.340;2022-07-29T04:40:46;99063.06;;;25.99;36.75
16331;BME280;8275;48.206;16.340;2022-07-29T04:43:16;99075.66;;;26.05;36.91
16331;BME280;8275;48.206;16.340;2022-07-29T04:45:49;99075.84;;;26.12;36.88
16331;BME280;8275;48.206;16.340;2022-07-29T04:48:19;99078.84;;;26.19;36.71
16331;BME280;8275;48.206;16.340;2022-07-29T04:50:54;99069.06;;;26.29;36.98
16331;BME280;8275;48.206;16.340;2022-07-29T04:53:23;99069.22;;;26.36;36.89
16331;BME280;8275;48.206;16.340;2022-07-29T04:55:51;99079.06;;;26.45;36.60
16331;BME280;8275;48.206;16.340;2022-07-29T04:58:20;99084.13;;;26.56;36.29
16331;BME280;8275;48.206;16.340;2022-07-29T05:00:50;99074.66;;;26.79;36.11
16331;BME280;8275;48.206;16.340;2022-07-29T05:03:20;99083.22;;;27.05;36.32
16331;BME280;8275;48.206;16.340;2022-07-29T05:05:48;99083.38;;;27.32;36.05
16331;BME280;8275;48.206;16.340;2022-07-29T05:08:17;99071.91;;;27.59;35.42
16331;BME280;8275;48.206;16.340;2022-07-29T05:10:45;99078.66;;;27.77;35.24
16331;BME280;8275;48.206;16.340;2022-07-29T05:13:14;99072.78;;;27.86;35.58
16331;BME280;8275;48.206;16.340;2022-07-29T05:15:43;99082.91;;;27.91;35.19
16331;BME280;8275;48.206;16.340;2022-07-29T05:18:11;99084.16;;;27.93;35.19
16331;BME280;8275;48.206;16.340;2022-07-29T05:20:41;99084.25;;;27.97;35.38
16331;BME280;8275;48.206;16.340;2022-07-29T05:23:10;99088.81;;;28.05;35.00
16331;BME280;8275;48.206;16.340;2022-07-29T05:25:39;99087.69;;;28.09;34.98
16331;BME280;8275;48.206;16.340;2022-07-29T05:28:10;99085.38;;;28.15;35.30
16331;BME280;8275;48.206;16.340;2022-07-29T05:30:39;99087.06;;;28.19;34.64
16331;BME280;8275;48.206;16.340;2022-07-29T05:33:07;99091.56;;;28.24;34.55
16331;BME280;8275;48.206;16.340;2022-07-29T05:35:57;99087.63;;;28.28;35.01
16331;BME280;8275;48.206;16.340;2022-07-29T05:38:27;99088.91;;;28.34;34.97
16331;BME280;8275;48.206;16.340;2022-07-29T05:40:57;99088.28;;;28.44;34.82
16331;BME280;8275;48.206;16.340;2022-07-29T05:43:27;99087.63;;;28.55;34.35
16331;BME280;8275;48.206;16.340;2022-07-29T05:45:56;99089.00;;;28.64;34.48
16331;BME280;8275;48.206;16.340;2022-07-29T05:48:25;99085.53;;;28.74;34.49
16331;BME280;8275;48.206;16.340;2022-07-29T05:50:53;99082.91;;;28.88;34.27
16331;BME280;8275;48.206;16.340;2022-07-29T05:53:23;99090.81;;;29.05;33.98
16331;BME280;8275;48.206;16.340;2022-07-29T05:55:52;99093.88;;;29.23;34.20
16331;BME280;8275;48.206;16.340;2022-07-29T05:58:21;99094.47;;;29.39;33.48
16331;BME280;8275;48.206;16.340;2022-07-29T06:00:50;99098.28;;;29.54;33.61
16331;BME280;8275;48.206;16.340;2022-07-29T06:03:18;99099.38;;;29.79;33.34
16331;BME280;8275;48.206;16.340;2022-07-29T06:05:47;99092.75;;;30.05;32.98
16331;BME280;8275;48.206;16.340;2022-07-29T06:08:15;99089.75;;;30.31;32.81
16331;BME280;8275;48.206;16.340;2022-07-29T06:10:45;99094.81;;;30.55;32.55
16331;BME280;8275;48.206;16.340;2022-07-29T06:13:14;99094.13;;;30.72;32.35
16331;BME280;8275;48.206;16.340;2022-07-29T06:15:44;99090.16;;;30.84;32.25
16331;BME280;8275;48.206;16.340;2022-07-29T06:18:12;99095.53;;;31.03;32.10
16331;BME280;8275;48.206;16.340;2022-07-29T06:20:41;99093.19;;;31.19;31.81
16331;BME280;8275;48.206;16.340;2022-07-29T06:23:09;99098.47;;;31.28;31.98
16331;BME280;8275;48.206;16.340;2022-07-29T06:25:40;99101.34;;;31.31;31.84
16331;BME280;8275;48.206;16.340;2022-07-29T06:28:09;99100.16;;;31.36;31.82
16331;BME280;8275;48.206;16.340;2022-07-29T06:30:38;99101.78;;;31.40;31.60
16331;BME280;8275;48.206;16.340;2022-07-29T06:33:06;99105.06;;;31.49;31.40
16331;BME280;8275;48.206;16.340;2022-07-29T06:35:35;99101.84;;;31.58;31.59
16331;BME280;8275;48.206;16.340;2022-07-29T06:38:08;99101.88;;;31.68;31.59
16331;BME280;8275;48.206;16.340;2022-07-29T06:40:58;99097.44;;;31.78;31.44
16331;BME280;8275;48.206;16.340;2022-07-29T06:43:34;99095.84;;;31.80;30.98
16331;BME280;8275;48.206;16.340;2022-07-29T06:46:19;99101.09;;;31.82;30.77
16331;BME280;8275;48.206;16.340;2022-07-29T06:48:49;99098.25;;;31.82;30.93
16331;BME280;8275;48.206;16.340;2022-07-29T06:51:18;99106.34;;;31.80;30.86
16331;BME280;8275;48.206;16.340;2022-07-29T06:53:50;99104.34;;;31.77;30.77
16331;BME280;8275;48.206;16.340;2022-07-29T06:56:29;99109.16;;;31.73;30.92
16331;BME280;8275;48.206;16.340;2022-07-29T06:59:09;99118.06;;;31.71;31.00
16331;BME280;8275;48.206;16.340;2022-07-29T07:01:38;99111.59;;;31.71;31.13
16331;BME280;8275;48.206;16.340;2022-07-29T07:04:08;99124.13;;;31.66;30.53
16331;BME280;8275;48.206;16.340;2022-07-29T07:06:37;99118.06;;;31.61;30.89
16331;BME280;8275;48.206;16.340;2022-07-29T07:09:06;99118.03;;;31.57;30.71
16331;BME280;8275;48.206;16.340;2022-07-29T07:11:35;99115.59;;;31.52;30.69
16331;BME280;8275;48.206;16.340;2022-07-29T07:14:03;99118.81;;;31.51;30.87
16331;BME280;8275;48.206;16.340;2022-07-29T07:16:33;99121.25;;;31.52;30.78
16331;BME280;8275;48.206;16.340;2022-07-29T07:19:02;99118.03;;;31.57;30.79
16331;BME280;8275;48.206;16.340;2022-07-29T07:21:33;99119.28;;;31.67;30.90
16331;BME280;8275;48.206;16.340;2022-07-29T07:24:02;99120.53;;;31.76;30.85
16331;BME280;8275;48.206;16.340;2022-07-29T07:26:30;99120.94;;;31.89;30.79
16331;BME280;8275;48.206;16.340;2022-07-29T07:28:59;99118.16;;;32.03;31.03
16331;BME280;8275;48.206;16.340;2022-07-29T07:31:27;99120.59;;;32.19;30.77
16331;BME280;8275;48.206;16.340;2022-07-29T07:33:57;99122.25;;;32.34;30.92
16331;BME280;8275;48.206;16.340;2022-07-29T07:36:26;99125.09;;;32.51;30.75
16331;BME280;8275;48.206;16.340;2022-07-29T07:38:54;99127.53;;;32.71;30.87
16331;BME280;8275;48.206;16.340;2022-07-29T07:41:23;99126.69;;;32.88;30.56
16331;BME280;8275;48.206;16.340;2022-07-29T07:43:51;99132.75;;;32.97;29.93
16331;BME280;8275;48.206;16.340;2022-07-29T07:46:19;99127.91;;;33.01;29.71
16331;BME280;8275;48.206;16.340;2022-07-29T07:48:48;99129.91;;;33.07;29.46
16331;BME280;8275;48.206;16.340;2022-07-29T07:51:18;99128.66;;;33.15;29.80
16331;BME280;8275;48.206;16.340;2022-07-29T07:53:46;99129.06;;;33.17;29.63
16331;BME280;8275;48.206;16.340;2022-07-29T07:56:16;99127.88;;;33.15;29.50
16331;BME280;8275;48.206;16.340;2022-07-29T07:58:45;99128.25;;;33.13;29.73
16331;BME280;8275;48.206;16.340;2022-07-29T08:01:13;99142.47;;;33.17;29.72
16331;BME280;8275;48.206;16.340;2022-07-29T08:03:44;99135.94;;;33.23;29.13
16331;BME280;8275;48.206;16.340;2022-07-29T08:06:13;99137.13;;;33.30;29.53
16331;BME280;8275;48.206;16.340;2022-07-29T08:08:43;99137.94;;;33.30;29.37
16331;BME280;8275;48.206;16.340;2022-07-29T08:11:11;99139.97;;;33.33;28.91
16331;BME280;8275;48.206;16.340;2022-07-29T08:13:40;99147.66;;;33.33;28.80
16331;BME280;8275;48.206;16.340;2022-07-29T08:16:08;99151.31;;;33.33;28.60
16331;BME280;8275;48.206;16.340;2022-07-29T08:18:43;99139.53;;;33.38;28.46
16331;BME280;8275;48.206;16.340;2022-07-29T08:21:12;99153.28;;;33.47;28.44
16331;BME280;8275;48.206;16.340;2022-07-29T08:23:43;99146.00;;;33.53;28.26
16331;BME280;8275;48.206;16.340;2022-07-29T08:26:27;99145.53;;;33.65;28.52
16331;BME280;8275;48.206;16.340;2022-07-29T08:28:56;99145.88;;;33.77;28.39
16331;BME280;8275;48.206;16.340;2022-07-29T08:31:24;99139.75;;;33.86;28.05
16331;BME280;8275;48.206;16.340;2022-07-29T08:33:53;99132.81;;;33.87;27.90
16331;BME280;8275;48.206;16.340;2022-07-29T08:36:23;99136.50;;;33.84;27.86
16331;BME280;8275;48.206;16.340;2022-07-29T08:38:53;99134.06;;;33.86;28.43
16331;BME280;8275;48.206;16.340;2022-07-29T08:41:21;99140.94;;;33.88;28.32
16331;BME280;8275;48.206;16.340;2022-07-29T08:43:50;99143.31;;;33.97;28.33
16331;BME280;8275;48.206;16.340;2022-07-29T08:46:21;99142.00;;;34.16;27.79
16331;BME280;8275;48.206;16.340;2022-07-29T08:48:50;99137.38;;;34.39;27.86
16331;BME280;8275;48.206;16.340;2022-07-29T08:51:20;99134.34;;;34.64;27.39
16331;BME280;8275;48.206;16.340;2022-07-29T08:53:50;99143.50;;;34.86;27.29
16331;BME280;8275;48.206;16.340;2022-07-29T08:56:20;99145.34;;;35.06;27.22
16331;BME280;8275;48.206;16.340;2022-07-29T08:58:49;99137.41;;;35.24;27.04
16331;BME280;8275;48.206;16.340;2022-07-29T09:01:23;99136.41;;;35.38;26.36
16331;BME280;8275;48.206;16.340;2022-07-29T09:04:04;99139.22;;;35.42;25.89
16331;BME280;8275;48.206;16.340;2022-07-29T09:06:37;99131.94;;;35.37;26.07
16331;BME280;8275;48.206;16.340;2022-07-29T09:09:08;99134.78;;;35.37;26.09
16331;BME280;8275;48.206;16.340;2022-07-29T09:11:38;99129.06;;;35.41;25.90
16331;BME280;8275;48.206;16.340;2022-07-29T09:14:06;99133.03;;;35.47;25.64
16331;BME280;8275;48.206;16.340;2022-07-29T09:16:50;99126.53;;;35.46;25.90
16331;BME280;8275;48.206;16.340;2022-07-29T09:19:26;99123.69;;;35.50;25.86
16331;BME280;8275;48.206;16.340;2022-07-29T09:21:57;99123.63;;;35.53;25.38
16331;BME280;8275;48.206;16.340;2022-07-29T09:24:42;99117.06;;;35.56;25.33
16331;BME280;8275;48.206;16.340;2022-07-29T09:27:21;99128.28;;;35.70;25.44
16331;BME280;8275;48.206;16.340;2022-07-29T09:29:57;99121.22;;;35.82;25.06
16331;BME280;8275;48.206;16.340;2022-07-29T09:32:26;99121.78;;;35.96;24.84
16331;BME280;8275;48.206;16.340;2022-07-29T09:35:19;99119.75;;;36.01;25.10
16331;BME280;8275;48.206;16.340;2022-07-29T09:37:49;99119.94;;;36.13;24.84
16331;BME280;8275;48.206;16.340;2022-07-29T09:40:20;99121.34;;;36.28;24.60
16331;BME280;8275;48.206;16.340;2022-07-29T09:42:51;99113.81;;;36.38;24.53
16331;BME280;8275;48.206;16.340;2022-07-29T09:45:31;99118.66;;;36.44;24.78
16331;BME280;8275;48.206;16.340;2022-07-29T09:48:13;99121.75;;;36.53;24.71
16331;BME280;8275;48.206;16.340;2022-07-29T09:50:45;99115.41;;;36.66;24.54
16331;BME280;8275;48.206;16.340;2022-07-29T09:53:31;99116.66;;;36.65;24.08
16331;BME280;8275;48.206;16.340;2022-07-29T09:56:00;99105.69;;;36.63;23.82
16331;BME280;8275;48.206;16.340;2022-07-29T09:58:30;99104.16;;;36.58;24.26
16331;BME280;8275;48.206;16.340;2022-07-29T10:01:00;99112.84;;;36.51;24.44
16331;BME280;8275;48.206;16.340;2022-07-29T10:03:30;99103.13;;;36.45;24.45
16331;BME280;8275;48.206;16.340;2022-07-29T10:06:07;99103.28;;;36.35;24.51
16331;BME280;8275;48.206;16.340;2022-07-29T10:08:36;99102.94;;;36.33;24.67
16331;BME280;8275;48.206;16.340;2022-07-29T10:11:13;99101.75;;;36.30;24.78
16331;BME280;8275;48.206;16.340;2022-07-29T10:13:45;99105.66;;;36.40;24.85
16331;BME280;8275;48.206;16.340;2022-07-29T10:16:15;99098.94;;;36.53;24.51
16331;BME280;8275;48.206;16.340;2022-07-29T10:18:45;99096.25;;;36.66;24.72
16331;BME280;8275;48.206;16.340;2022-07-29T10:21:14;99105.94;;;36.72;24.38
16331;BME280;8275;48.206;16.340;2022-07-29T10:24:03;99104.69;;;36.73;24.47
16331;BME280;8275;48.206;16.340;2022-07-29T10:26:32;99104.63;;;36.77;24.15
16331;BME280;8275;48.206;16.340;2022-07-29T10:29:02;99103.72;;;36.80;24.17
16331;BME280;8275;48.206;16.340;2022-07-29T10:31:43;99097.25;;;36.79;23.99
16331;BME280;8275;48.206;16.340;2022-07-29T10:34:21;99095.84;;;36.87;23.82
16331;BME280;8275;48.206;16.340;2022-07-29T10:36:56;99090.41;;;36.96;23.78
16331;BME280;8275;48.206;16.340;2022-07-29T10:39:42;99097.16;;;37.06;24.12
16331;BME280;8275;48.206;16.340;2022-07-29T10:42:20;99093.19;;;37.19;23.42
16331;BME280;8275;48.206;16.340;2022-07-29T10:45:04;99090.06;;;37.34;23.43
16331;BME280;8275;48.206;16.340;2022-07-29T10:47:33;99084.78;;;37.52;23.75
16331;BME280;8275;48.206;16.340;2022-07-29T10:50:05;99081.47;;;37.73;23.42
16331;BME280;8275;48.206;16.340;2022-07-29T10:52:54;99087.31;;;37.85;23.38
16331;BME280;8275;48.206;16.340;2022-07-29T10:55:35;99089.22;;;37.92;22.53
16331;BME280;8275;48.206;16.340;2022-07-29T10:58:14;99084.63;;;37.94;22.91
16331;BME280;8275;48.206;16.340;2022-07-29T11:00:47;99083.31;;;37.99;22.81
16331;BME280;8275;48.206;16.340;2022-07-29T11:03:45;99074.28;;;38.01;22.98
16331;BME280;8275;48.206;16.340;2022-07-29T11:06:18;99062.88;;;38.17;22.82
16331;BME280;8275;48.206;16.340;2022-07-29T11:09:16;99072.53;;;38.39;22.51
16331;BME280;8275;48.206;16.340;2022-07-29T11:12:01;99062.94;;;38.61;22.35
16331;BME280;8275;48.206;16.340;2022-07-29T11:14:56;99062.84;;;38.81;22.26
16331;BME280;8275;48.206;16.340;2022-07-29T11:17:28;99054.34;;;39.06;21.76
16331;BME280;8275;48.206;16.340;2022-07-29T11:20:35;99060.19;;;39.44;21.88
16331;BME280;8275;48.206;16.340;2022-07-29T11:23:25;99043.88;;;39.95;21.09
16331;BME280;8275;48.206;16.340;2022-07-29T11:26:18;99051.47;;;40.27;20.73
16331;BME280;8275;48.206;16.340;2022-07-29T11:28:58;99051.81;;;40.29;20.31
16331;BME280;8275;48.206;16.340;2022-07-29T11:31:39;99047.13;;;40.22;20.42
16331;BME280;8275;48.206;16.340;2022-07-29T11:34:23;99061.22;;;40.17;20.15
16331;BME280;8275;48.206;16.340;2022-07-29T11:37:19;99056.41;;;40.14;19.85
16331;BME280;8275;48.206;16.340;2022-07-29T11:40:16;99052.25;;;40.27;20.25
16331;BME280;8275;48.206;16.340;2022-07-29T11:42:51;99048.56;;;40.52;19.86
16331;BME280;8275;48.206;16.340;2022-07-29T11:45:26;99050.31;;;40.84;19.81
16331;BME280;8275;48.206;16.340;2022-07-29T11:48:16;99036.81;;;41.27;19.38
16331;BME280;8275;48.206;16.340;2022-07-29T11:50:57;99042.88;;;41.82;18.95
16331;BME280;8275;48.206;16.340;2022-07-29T11:53:26;99034.78;;;42.38;18.53
16331;BME280;8275;48.206;16.340;2022-07-29T11:56:00;99019.97;;;42.94;18.16
16331;BME280;8275;48.206;16.340;2022-07-29T11:58:30;99022.28;;;43.59;18.19
16331;BME280;8275;48.206;16.340;2022-07-29T12:01:00;99018.19;;;44.26;17.85
16331;BME280;8275;48.206;16.340;2022-07-29T12:04:03;99018.00;;;44.77;16.87
16331;BME280;8275;48.206;16.340;2022-07-29T12:06:34;99015.53;;;45.08;15.98
16331;BME280;8275;48.206;16.340;2022-07-29T12:09:07;99009.56;;;45.26;16.11
16331;BME280;8275;48.206;16.340;2022-07-29T12:11:40;99003.06;;;45.46;15.83
16331;BME280;8275;48.206;16.340;2022-07-29T12:14:26;99007.97;;;45.54;15.88
16331;BME280;8275;48.206;16.340;2022-07-29T12:16:55;99014.16;;;45.76;15.81
16331;BME280;8275;48.206;16.340;2022-07-29T12:19:24;99012.72;;;46.01;15.64
16331;BME280;8275;48.206;16.340;2022-07-29T12:21:55;98996.38;;;46.33;15.46
16331;BME280;8275;48.206;16.340;2022-07-29T12:24:43;99013.41;;;46.66;15.24
16331;BME280;8275;48.206;16.340;2022-07-29T12:27:12;99013.47;;;46.91;14.68
16331;BME280;8275;48.206;16.340;2022-07-29T12:29:56;99006.88;;;46.91;14.54
16331;BME280;8275;48.206;16.340;2022-07-29T12:32:32;99014.44;;;46.63;14.71
16331;BME280;8275;48.206;16.340;2022-07-29T12:35:03;99018.88;;;46.23;14.39
16331;BME280;8275;48.206;16.340;2022-07-29T12:37:35;99006.75;;;45.75;14.54
16331;BME280;8275;48.206;16.340;2022-07-29T12:40:09;99009.06;;;45.27;14.94
16331;BME280;8275;48.206;16.340;2022-07-29T12:42:38;98995.31;;;44.84;15.44
16331;BME280;8275;48.206;16.340;2022-07-29T12:45:08;99003.00;;;44.40;15.24
16331;BME280;8275;48.206;16.340;2022-07-29T12:47:51;98999.97;;;43.78;16.15
16331;BME280;8275;48.206;16.340;2022-07-29T12:50:20;99001.84;;;43.21;16.08
16331;BME280;8275;48.206;16.340;2022-07-29T12:52:53;99003.28;;;42.53;16.46
16331;BME280;8275;48.206;16.340;2022-07-29T12:55:42;99005.16;;;41.80;17.01
16331;BME280;8275;48.206;16.340;2022-07-29T12:58:12;99005.66;;;41.26;17.55
16331;BME280;8275;48.206;16.340;2022-07-29T13:00:40;98999.66;;;40.77;17.42
16331;BME280;8275;48.206;16.340;2022-07-29T13:03:09;99007.47;;;40.30;18.32
16331;BME280;8275;48.206;16.340;2022-07-29T13:05:43;98997.53;;;39.84;18.16
16331;BME280;8275;48.206;16.340;2022-07-29T13:08:18;99004.63;;;39.42;18.91
16331;BME280;8275;48.206;16.340;2022-07-29T13:10:48;99009.53;;;39.00;19.57
16331;BME280;8275;48.206;16.340;2022-07-29T13:13:17;99004.44;;;38.62;19.77
16331;BME280;8275;48.206;16.340;2022-07-29T13:15:46;99003.31;;;38.28;20.12
16331;BME280;8275;48.206;16.340;2022-07-29T13:18:28;99010.91;;;37.86;20.31
16331;BME280;8275;48.206;16.340;2022-07-29T13:21:05;99013.31;;;37.52;21.29
16331;BME280;8275;48.206;16.340;2022-07-29T13:23:39;99011.38;;;37.09;21.63
16331;BME280;8275;48.206;16.340;2022-07-29T13:26:09;99012.59;;;36.69;22.49
16331;BME280;8275;48.206;16.340;2022-07-29T13:28:38;99015.34;;;36.30;22.53
16331;BME280;8275;48.206;16.340;2022-07-29T13:31:10;99013.50;;;35.93;23.27
16331;BME280;8275;48.206;16.340;2022-07-29T13:33:38;99023.38;;;35.62;23.35